Time,TemperatureF,DewpointF,PressureIn,WindDirection,WindDirectionDegrees,WindSpeedMPH,WindSpeedGustMPH,Humidity,HourlyPrecipIn,Conditions,Clouds,dailyrainin,SoftwareType,DateUTC
2013-07-01 00:00:00,73.4,71.9,29.77,East,98,0.0,0.0,95,0.00,,,0.00,WeatherTracker,2013-07-01 05:00:00,
2013-07-01 00:10:00,73.2,71.7,29.76,East,98,0.0,0.0,95,0.00,,,0.00,WeatherTracker,2013-07-01 05:10:00,
2013-07-01 00:15:00,73.1,71.6,29.76,East,98,0.0,0.0,95,0.00,,,0.00,WeatherTracker,2013-07-01 05:15:00,
2013-07-01 00:20:00,72.9,71.4,29.77,East,98,0.0,0.0,95,0.00,,,0.00,WeatherTracker,2013-07-01 05:20:00,
2013-07-01 00:30:00,72.8,71.3,29.76,East,98,0.0,0.0,95,0.00,,,0.00,WeatherTracker,2013-07-01 05:30:00,
2013-07-01 00:35:00,72.8,71.3,29.76,East,98,0.0,0.0,95,0.00,,,0.00,WeatherTracker,2013-07-01 05:35:00,
2013-07-01 00:40:00,72.8,71.3,29.76,East,98,0.0,0.0,95,0.00,,,0.00,WeatherTracker,2013-07-01 05:40:00,
2013-07-01 00:45:00,72.7,71.2,29.76,East,98,0.0,0.0,95,0.00,,,0.00,WeatherTracker,2013-07-01 05:45:00,
2013-07-01 00:55:00,72.5,71.0,29.76,East,98,0.0,0.0,95,0.00,,,0.00,WeatherTracker,2013-07-01 05:55:00,
2013-07-01 01:00:00,72.3,70.8,29.76,East,98,0.0,0.0,95,0.00,,,0.00,WeatherTracker,2013-07-01 06:00:00,
2013-07-01 01:05:00,72.4,70.9,29.76,East,98,2.0,4.0,95,0.00,,,0.00,WeatherTracker,2013-07-01 06:05:00,
2013-07-01 01:10:00,72.6,71.1,29.76,East,98,0.0,5.0,95,0.00,,,0.00,WeatherTracker,2013-07-01 06:10:00,
2013-07-01 01:20:00,72.7,71.5,29.76,East,98,0.0,4.0,96,0.00,,,0.00,WeatherTracker,2013-07-01 06:20:00,
2013-07-01 01:30:00,72.8,71.6,29.76,East,98,0.0,2.0,96,0.00,,,0.00,WeatherTracker,2013-07-01 06:30:00,
2013-07-01 01:35:00,72.7,71.5,29.76,East,98,0.0,2.0,96,0.00,,,0.00,WeatherTracker,2013-07-01 06:35:00,
2013-07-01 01:40:00,72.6,71.4,29.76,East,98,0.0,0.0,96,0.00,,,0.00,WeatherTracker,2013-07-01 06:40:00,
2013-07-01 01:45:00,72.5,71.3,29.76,East,98,0.0,0.0,96,0.00,,,0.00,WeatherTracker,2013-07-01 06:45:00,
2013-07-01 01:50:00,72.5,71.3,29.76,East,98,0.0,2.0,96,0.00,,,0.00,WeatherTracker,2013-07-01 06:50:00,
2013-07-01 02:00:00,72.4,71.2,29.76,East,98,0.0,0.0,96,0.00,,,0.00,WeatherTracker,2013-07-01 07:00:00,
2013-07-01 02:05:00,72.3,71.1,29.76,East,98,0.0,0.0,96,0.00,,,0.00,WeatherTracker,2013-07-01 07:05:00,
2013-07-01 02:15:00,72.5,71.3,29.75,East,98,1.0,4.0,96,0.00,,,0.00,WeatherTracker,2013-07-01 07:15:00,
2013-07-01 02:20:00,72.8,71.6,29.76,SSW,196,2.0,5.0,96,0.00,,,0.00,WeatherTracker,2013-07-01 07:20:00,
2013-07-01 02:30:00,73.3,72.4,29.76,SSW,197,0.0,3.0,97,0.00,,,0.00,WeatherTracker,2013-07-01 07:30:00,
2013-07-01 02:35:00,73.3,72.1,29.76,SSW,197,0.0,3.0,96,0.00,,,0.00,WeatherTracker,2013-07-01 07:35:00,
2013-07-01 02:40:00,73.3,72.1,29.76,SSW,197,0.0,0.0,96,0.00,,,0.00,WeatherTracker,2013-07-01 07:40:00,
2013-07-01 02:50:00,73.4,72.5,29.76,SSW,197,0.0,0.0,97,0.00,,,0.00,WeatherTracker,2013-07-01 07:50:00,
2013-07-01 02:55:00,73.4,72.5,29.76,SSW,197,0.0,0.0,97,0.00,,,0.00,WeatherTracker,2013-07-01 07:55:00,
2013-07-01 03:00:00,73.4,72.5,29.76,SSW,197,0.0,0.0,97,0.00,,,0.00,WeatherTracker,2013-07-01 08:00:00,
2013-07-01 03:10:00,73.5,72.6,29.76,SSW,197,0.0,0.0,97,0.00,,,0.00,WeatherTracker,2013-07-01 08:10:00,
2013-07-01 03:20:00,73.5,72.6,29.76,SSW,197,0.0,3.0,97,0.00,,,0.00,WeatherTracker,2013-07-01 08:20:00,
2013-07-01 03:25:00,73.5,72.6,29.76,SSW,197,0.0,2.0,97,0.00,,,0.00,WeatherTracker,2013-07-01 08:25:00,
2013-07-01 03:35:00,73.5,72.6,29.77,SSW,197,0.0,0.0,97,0.00,,,0.00,WeatherTracker,2013-07-01 08:35:00,
2013-07-01 03:40:00,73.5,72.6,29.77,SSW,197,1.0,3.0,97,0.00,,,0.00,WeatherTracker,2013-07-01 08:40:00,
2013-07-01 03:45:00,73.4,72.5,29.77,SSW,194,2.0,3.0,97,0.00,,,0.00,WeatherTracker,2013-07-01 08:45:00,
2013-07-01 03:55:00,73.3,72.4,29.77,SSW,194,0.0,3.0,97,0.00,,,0.00,WeatherTracker,2013-07-01 08:55:00,
2013-07-01 04:00:00,73.2,72.3,29.77,SSW,194,0.0,0.0,97,0.00,,,0.00,WeatherTracker,2013-07-01 09:00:00,
2013-07-01 04:10:00,73.1,72.2,29.77,South,187,0.0,2.0,97,0.00,,,0.00,WeatherTracker,2013-07-01 09:10:00,
2013-07-01 04:20:00,73.0,72.1,29.77,SSE,157,0.0,4.0,97,0.00,,,0.00,WeatherTracker,2013-07-01 09:20:00,
2013-07-01 04:25:00,72.9,72.0,29.77,South,184,0.0,5.0,97,0.00,,,0.00,WeatherTracker,2013-07-01 09:25:00,
2013-07-01 04:35:00,72.8,71.9,29.77,South,186,3.0,7.0,97,0.00,,,0.00,WeatherTracker,2013-07-01 09:35:00,
2013-07-01 04:40:00,72.7,71.8,29.77,SSW,195,0.0,7.0,97,0.00,,,0.00,WeatherTracker,2013-07-01 09:40:00,
2013-07-01 04:45:00,72.6,71.7,29.78,SSE,168,4.0,6.0,97,0.00,,,0.00,WeatherTracker,2013-07-01 09:45:00,
2013-07-01 04:50:00,72.6,71.7,29.78,SSE,165,0.0,5.0,97,0.00,,,0.00,WeatherTracker,2013-07-01 09:50:00,
2013-07-01 05:00:00,72.6,71.7,29.78,SSE,165,0.0,4.0,97,0.00,,,0.00,WeatherTracker,2013-07-01 10:00:00,
2013-07-01 05:10:00,72.6,71.7,29.78,South,186,1.0,5.0,97,0.00,,,0.00,WeatherTracker,2013-07-01 10:10:00,
2013-07-01 05:15:00,72.6,71.7,29.78,South,170,0.0,5.0,97,0.00,,,0.00,WeatherTracker,2013-07-01 10:15:00,
2013-07-01 05:20:00,72.6,71.7,29.78,South,171,0.0,5.0,97,0.00,,,0.00,WeatherTracker,2013-07-01 10:20:00,
2013-07-01 05:30:00,72.6,71.7,29.78,SSE,157,0.0,6.0,97,0.00,,,0.00,WeatherTracker,2013-07-01 10:30:00,
2013-07-01 05:40:00,72.6,71.7,29.79,South,187,0.0,5.0,97,0.00,,,0.00,WeatherTracker,2013-07-01 10:40:00,
2013-07-01 05:45:00,72.6,71.7,29.79,SSE,165,1.0,5.0,97,0.00,,,0.00,WeatherTracker,2013-07-01 10:45:00,
2013-07-01 05:55:00,72.4,71.5,29.79,SE,139,0.0,5.0,97,0.00,,,0.00,WeatherTracker,2013-07-01 10:55:00,
2013-07-01 06:00:00,72.4,71.5,29.79,SE,141,0.0,6.0,97,0.00,,,0.00,WeatherTracker,2013-07-01 11:00:00,
2013-07-01 06:10:00,72.4,71.5,29.79,SSW,198,0.0,6.0,97,0.00,,,0.00,WeatherTracker,2013-07-01 11:10:00,
2013-07-01 06:15:00,72.4,71.5,29.79,SSE,163,2.0,6.0,97,0.00,,,0.00,WeatherTracker,2013-07-01 11:15:00,
2013-07-01 06:20:00,72.4,71.5,29.79,South,176,0.0,0.0,97,0.00,,,0.00,WeatherTracker,2013-07-01 11:20:00,
2013-07-01 06:26:00,72.4,71.5,29.79,South,176,0.0,0.0,97,0.00,,,0.00,WeatherTracker,2013-07-01 11:26:00,
2013-07-01 06:33:00,72.4,71.5,29.78,South,176,0.0,0.0,97,0.00,,,0.00,WeatherTracker,2013-07-01 11:33:00,
2013-07-01 06:40:00,72.4,71.5,29.79,South,176,0.0,0.0,97,0.00,,,0.00,WeatherTracker,2013-07-01 11:40:00,
2013-07-01 06:50:00,72.4,71.5,29.78,South,176,0.0,0.0,97,0.00,,,0.00,WeatherTracker,2013-07-01 11:50:00,
2013-07-01 07:00:00,72.6,71.7,29.79,South,176,0.0,0.0,97,0.00,,,0.00,WeatherTracker,2013-07-01 12:00:00,
2013-07-01 07:10:00,72.7,71.8,29.80,South,176,0.0,0.0,97,0.00,,,0.00,WeatherTracker,2013-07-01 12:10:00,
2013-07-01 07:20:00,72.8,71.9,29.80,South,191,2.0,4.0,97,0.00,,,0.00,WeatherTracker,2013-07-01 12:20:00,
2013-07-01 07:25:00,72.8,71.9,29.81,SSW,209,6.0,6.0,97,0.00,,,0.00,WeatherTracker,2013-07-01 12:25:00,
2013-07-01 07:35:00,72.8,71.9,29.81,SSW,192,0.0,6.0,97,0.00,,,0.00,WeatherTracker,2013-07-01 12:35:00,
2013-07-01 07:40:00,72.9,72.0,29.81,SW,215,0.0,4.0,97,0.00,,,0.00,WeatherTracker,2013-07-01 12:40:00,
2013-07-01 07:45:00,72.9,72.0,29.81,SW,221,0.0,4.0,97,0.00,,,0.00,WeatherTracker,2013-07-01 12:45:00,
2013-07-01 07:55:00,73.3,72.4,29.82,East,96,1.0,3.0,97,0.00,,,0.00,WeatherTracker,2013-07-01 12:55:00,
2013-07-01 08:05:00,73.7,72.8,29.82,East,96,0.0,3.0,97,0.00,,,0.00,WeatherTracker,2013-07-01 13:05:00,
2013-07-01 08:10:00,73.5,72.6,29.82,SE,146,0.0,4.0,97,0.00,,,0.00,WeatherTracker,2013-07-01 13:10:00,
2013-07-01 08:20:00,74.0,73.1,29.82,South,180,4.0,4.0,97,0.00,,,0.00,WeatherTracker,2013-07-01 13:20:00,
2013-07-01 08:25:00,74.5,73.6,29.82,ESE,120,5.0,5.0,97,0.00,,,0.00,WeatherTracker,2013-07-01 13:25:00,
2013-07-01 08:35:00,75.5,74.3,29.82,SE,125,2.0,6.0,96,0.00,,,0.00,WeatherTracker,2013-07-01 13:35:00,
2013-07-01 08:45:00,76.5,74.3,29.81,ENE,58,0.0,5.0,93,0.00,,,0.00,WeatherTracker,2013-07-01 13:45:00,
2013-07-01 08:50:00,77.2,74.4,29.81,ENE,64,0.0,3.0,91,0.00,,,0.00,WeatherTracker,2013-07-01 13:50:00,
2013-07-01 08:55:00,77.9,74.4,29.81,ENE,64,0.0,4.0,89,0.00,,,0.00,WeatherTracker,2013-07-01 13:55:00,
2013-07-01 09:05:00,79.0,74.1,29.82,East,80,0.0,2.0,85,0.00,,,0.00,WeatherTracker,2013-07-01 14:05:00,
2013-07-01 09:15:00,80.2,74.9,29.82,West,279,0.0,5.0,84,0.00,,,0.00,WeatherTracker,2013-07-01 14:15:00,
2013-07-01 09:20:00,80.6,74.6,29.82,West,279,0.0,5.0,82,0.00,,,0.00,WeatherTracker,2013-07-01 14:20:00,
2013-07-01 09:25:00,80.9,75.2,29.82,NNE,20,1.0,5.0,83,0.00,,,0.00,WeatherTracker,2013-07-01 14:25:00,
2013-07-01 09:35:00,81.4,75.7,29.82,NNW,338,2.0,3.0,83,0.00,,,0.00,WeatherTracker,2013-07-01 14:35:00,
2013-07-01 09:40:00,81.3,75.3,29.82,NW,326,0.0,3.0,82,0.00,,,0.00,WeatherTracker,2013-07-01 14:40:00,
2013-07-01 09:45:00,81.3,75.3,29.82,ESE,103,0.0,3.0,82,0.00,,,0.00,WeatherTracker,2013-07-01 14:45:00,
2013-07-01 09:55:00,82.8,76.7,29.82,South,172,5.0,5.0,82,0.00,,,0.00,WeatherTracker,2013-07-01 14:55:00,
2013-07-01 10:05:00,83.1,74.7,29.83,SW,227,1.0,5.0,76,0.00,,,0.00,WeatherTracker,2013-07-01 15:05:00,
2013-07-01 10:10:00,83.1,75.9,29.82,South,181,0.0,5.0,79,0.00,,,0.00,WeatherTracker,2013-07-01 15:10:00,
2013-07-01 10:20:00,83.4,75.8,29.83,SSW,194,1.0,5.0,78,0.00,,,0.00,WeatherTracker,2013-07-01 15:20:00,
2013-07-01 10:30:00,83.4,75.8,29.83,South,185,2.0,5.0,78,0.00,,,0.00,WeatherTracker,2013-07-01 15:30:00,
2013-07-01 10:40:00,83.0,76.5,29.83,SSW,192,0.0,4.0,81,0.00,,,0.00,WeatherTracker,2013-07-01 15:40:00,
2013-07-01 10:50:00,83.4,76.2,29.83,WSW,250,4.0,7.0,79,0.00,,,0.00,WeatherTracker,2013-07-01 15:50:00,
2013-07-01 11:00:00,83.9,75.9,29.82,SSW,198,0.0,7.0,77,0.00,,,0.00,WeatherTracker,2013-07-01 16:00:00,
2013-07-01 11:05:00,83.9,75.9,29.82,SSW,202,0.0,5.0,77,0.00,,,0.00,WeatherTracker,2013-07-01 16:05:00,
2013-07-01 11:10:00,84.2,75.8,29.82,South,184,2.0,5.0,76,0.00,,,0.00,WeatherTracker,2013-07-01 16:10:00,
2013-07-01 11:15:00,84.4,76.4,29.82,South,175,2.0,7.0,77,0.00,,,0.00,WeatherTracker,2013-07-01 16:15:00,
2013-07-01 11:20:00,84.8,76.0,29.82,SSW,198,4.0,7.0,75,0.00,,,0.00,WeatherTracker,2013-07-01 16:20:00,
2013-07-01 11:25:00,85.1,75.9,29.82,SW,216,6.0,7.0,74,0.00,,,0.00,WeatherTracker,2013-07-01 16:25:00,
2013-07-01 11:35:00,86.1,77.2,29.81,SW,224,3.0,7.0,75,0.00,,,0.00,WeatherTracker,2013-07-01 16:35:00,
2013-07-01 11:40:00,85.9,75.8,29.81,South,188,6.0,8.0,72,0.00,,,0.00,WeatherTracker,2013-07-01 16:40:00,
2013-07-01 11:50:00,85.5,76.2,29.81,SW,219,5.0,9.0,74,0.00,,,0.00,WeatherTracker,2013-07-01 16:50:00,
2013-07-01 11:55:00,85.7,76.4,29.80,SSW,213,3.0,7.0,74,0.00,,,0.00,WeatherTracker,2013-07-01 16:55:00,
2013-07-01 12:05:00,86.0,75.0,29.80,SW,227,4.0,10.0,70,0.00,,,0.00,WeatherTracker,2013-07-01 17:05:00,
2013-07-01 12:10:00,86.6,75.2,29.80,WSW,252,4.0,10.0,69,0.00,,,0.00,WeatherTracker,2013-07-01 17:10:00,
2013-07-01 12:15:00,86.7,77.0,29.81,West,267,4.0,8.0,73,0.00,,,0.00,WeatherTracker,2013-07-01 17:15:00,
2013-07-01 12:20:00,86.3,75.3,29.81,WSW,244,7.0,8.0,70,0.00,,,0.00,WeatherTracker,2013-07-01 17:20:00,
2013-07-01 12:30:00,85.0,75.3,29.80,SSW,208,2.0,9.0,73,0.00,,,0.00,WeatherTracker,2013-07-01 17:30:00,
2013-07-01 12:40:00,84.6,76.2,29.80,SW,225,4.0,6.0,76,0.00,,,0.00,WeatherTracker,2013-07-01 17:40:00,
2013-07-01 12:45:00,84.5,75.7,29.80,SW,217,4.0,6.0,75,0.00,,,0.00,WeatherTracker,2013-07-01 17:45:00,
2013-07-01 12:50:00,83.9,75.1,29.81,SSW,211,6.0,15.0,75,0.00,,,0.00,WeatherTracker,2013-07-01 17:50:00,
2013-07-01 12:55:00,82.6,75.4,29.81,SSW,210,6.0,15.0,79,0.00,,,0.00,WeatherTracker,2013-07-01 17:55:00,
2013-07-01 13:05:00,82.0,73.3,29.80,South,172,7.0,11.0,75,0.00,,,0.00,WeatherTracker,2013-07-01 18:05:00,
2013-07-01 13:15:00,84.6,73.7,29.81,WSW,244,6.0,11.0,70,0.00,,,0.00,WeatherTracker,2013-07-01 18:15:00,
2013-07-01 13:25:00,83.1,73.9,29.81,NNW,329,4.0,11.0,74,0.00,,,0.00,WeatherTracker,2013-07-01 18:25:00,
2013-07-01 13:35:00,81.5,72.0,29.80,NW,319,0.0,9.0,73,0.00,,,0.00,WeatherTracker,2013-07-01 18:35:00,
2013-07-01 13:40:00,81.9,73.6,29.80,NW,319,0.0,4.0,76,0.00,,,0.00,WeatherTracker,2013-07-01 18:40:00,
2013-07-01 13:45:00,82.8,73.6,29.80,West,275,1.0,3.0,74,0.00,,,0.00,WeatherTracker,2013-07-01 18:45:00,
2013-07-01 13:55:00,82.7,73.5,29.80,South,183,3.0,4.0,74,0.00,,,0.00,WeatherTracker,2013-07-01 18:55:00,
2013-07-01 14:05:00,82.0,74.4,29.81,SSW,196,5.0,6.0,78,0.00,,,0.00,WeatherTracker,2013-07-01 19:05:00,
2013-07-01 14:10:00,81.3,73.0,29.81,South,179,0.0,7.0,76,0.00,,,0.00,WeatherTracker,2013-07-01 19:10:00,
2013-07-01 14:20:00,79.8,71.9,29.81,SSE,150,0.0,5.0,77,0.00,,,0.00,WeatherTracker,2013-07-01 19:20:00,
2013-07-01 14:30:00,79.2,71.7,29.80,SSE,150,0.0,4.0,78,0.00,,,0.00,WeatherTracker,2013-07-01 19:30:00,
2013-07-01 14:35:00,79.4,71.9,29.80,East,92,0.0,4.0,78,0.00,,,0.00,WeatherTracker,2013-07-01 19:35:00,
2013-07-01 14:40:00,79.5,71.6,29.80,East,92,0.0,1.0,77,0.00,,,0.00,WeatherTracker,2013-07-01 19:40:00,
2013-07-01 14:45:00,79.7,72.6,29.80,East,92,0.0,1.0,79,0.00,,,0.00,WeatherTracker,2013-07-01 19:45:00,
2013-07-01 14:50:00,79.6,72.5,29.80,East,92,0.0,1.0,79,0.00,,,0.00,WeatherTracker,2013-07-01 19:50:00,
2013-07-01 15:00:00,80.5,73.0,29.80,NE,51,3.0,4.0,78,0.00,,,0.00,WeatherTracker,2013-07-01 20:00:00,
2013-07-01 15:05:00,80.9,73.4,29.80,ENE,71,3.0,4.0,78,0.00,,,0.00,WeatherTracker,2013-07-01 20:05:00,
2013-07-01 15:10:00,81.3,73.4,29.80,ENE,63,2.0,4.0,77,0.00,,,0.00,WeatherTracker,2013-07-01 20:10:00,
2013-07-01 15:15:00,82.0,74.1,29.80,ENE,78,2.0,5.0,77,0.00,,,0.00,WeatherTracker,2013-07-01 20:15:00,
2013-07-01 15:25:00,82.0,73.3,29.80,SE,145,4.0,6.0,75,0.00,,,0.00,WeatherTracker,2013-07-01 20:25:00,
2013-07-01 15:35:00,82.2,74.3,29.81,East,92,5.0,6.0,77,0.00,,,0.00,WeatherTracker,2013-07-01 20:35:00,
2013-07-01 15:40:00,82.5,74.1,29.81,ENE,72,1.0,7.0,76,0.00,,,0.00,WeatherTracker,2013-07-01 20:40:00,
2013-07-01 15:50:00,82.0,73.7,29.81,East,91,4.0,9.0,76,0.00,,,0.00,WeatherTracker,2013-07-01 20:50:00,
2013-07-01 15:55:00,81.7,73.4,29.81,ESE,102,6.0,6.0,76,0.00,,,0.00,WeatherTracker,2013-07-01 20:55:00,
2013-07-01 16:05:00,81.4,73.5,29.81,ESE,103,4.0,8.0,77,0.00,,,0.00,WeatherTracker,2013-07-01 21:05:00,
2013-07-01 16:10:00,81.5,73.6,29.81,East,85,5.0,7.0,77,0.00,,,0.00,WeatherTracker,2013-07-01 21:10:00,
2013-07-01 16:20:00,81.6,72.9,29.81,East,96,5.0,7.0,75,0.00,,,0.00,WeatherTracker,2013-07-01 21:20:00,
2013-07-01 16:25:00,81.7,73.8,29.81,ENE,78,4.0,6.0,77,0.00,,,0.00,WeatherTracker,2013-07-01 21:25:00,
2013-07-01 16:30:00,81.8,73.5,29.81,ESE,111,1.0,5.0,76,0.00,,,0.00,WeatherTracker,2013-07-01 21:30:00,
2013-07-01 16:40:00,82.0,74.1,29.80,ESE,107,2.0,6.0,77,0.00,,,0.00,WeatherTracker,2013-07-01 21:40:00,
2013-07-01 16:50:00,81.9,73.6,29.80,East,92,0.0,7.0,76,0.00,,,0.00,WeatherTracker,2013-07-01 21:50:00,
2013-07-01 16:55:00,81.7,74.2,29.80,ESE,109,1.0,7.0,78,0.00,,,0.00,WeatherTracker,2013-07-01 21:55:00,
2013-07-01 17:05:00,81.6,74.8,29.80,ESE,109,0.0,4.0,80,0.00,,,0.00,WeatherTracker,2013-07-01 22:05:00,
2013-07-01 17:10:00,81.8,74.6,29.80,East,93,2.0,5.0,79,0.00,,,0.00,WeatherTracker,2013-07-01 22:10:00,
2013-07-01 17:20:00,81.8,74.2,29.80,East,80,2.0,5.0,78,0.00,,,0.00,WeatherTracker,2013-07-01 22:20:00,
2013-07-01 17:30:00,81.8,75.0,29.80,SSE,148,4.0,5.0,80,0.00,,,0.00,WeatherTracker,2013-07-01 22:30:00,
2013-07-01 17:35:00,81.8,74.2,29.81,ESE,111,1.0,5.0,78,0.00,,,0.00,WeatherTracker,2013-07-01 22:35:00,
2013-07-01 17:45:00,81.6,74.1,29.81,SE,145,1.0,5.0,78,0.00,,,0.00,WeatherTracker,2013-07-01 22:45:00,
2013-07-01 17:50:00,81.5,74.0,29.82,East,91,2.0,4.0,78,0.00,,,0.00,WeatherTracker,2013-07-01 22:50:00,
2013-07-01 18:00:00,81.2,74.0,29.82,ESE,105,4.0,4.0,79,0.00,,,0.00,WeatherTracker,2013-07-01 23:00:00,
2013-07-01 18:05:00,81.1,74.0,29.82,ESE,105,1.0,4.0,79,0.00,,,0.00,WeatherTracker,2013-07-01 23:05:00,
2013-07-01 18:15:00,80.8,74.0,29.82,ESE,112,2.0,4.0,80,0.00,,,0.00,WeatherTracker,2013-07-01 23:15:00,
2013-07-01 18:20:00,80.8,74.4,29.82,SSE,160,0.0,5.0,81,0.00,,,0.00,WeatherTracker,2013-07-01 23:20:00,
2013-07-01 18:30:00,80.8,74.8,29.83,SSE,158,0.0,2.0,82,0.00,,,0.00,WeatherTracker,2013-07-01 23:30:00,
2013-07-01 18:35:00,80.7,74.3,29.83,SSE,157,0.0,2.0,81,0.00,,,0.00,WeatherTracker,2013-07-01 23:35:00,
2013-07-01 18:40:00,80.7,74.3,29.83,SSE,156,1.0,5.0,81,0.00,,,0.00,WeatherTracker,2013-07-01 23:40:00,
2013-07-01 18:50:00,80.7,73.9,29.84,South,169,0.0,5.0,80,0.00,,,0.00,WeatherTracker,2013-07-01 23:50:00,
2013-07-01 18:55:00,80.6,73.8,29.84,South,169,1.0,4.0,80,0.00,,,0.00,WeatherTracker,2013-07-01 23:55:00,
2013-07-01 19:05:00,80.4,74.0,29.84,SSE,153,0.0,5.0,81,0.00,,,0.00,WeatherTracker,2013-07-02 00:05:00,
2013-07-01 19:15:00,80.3,74.3,29.85,SSW,198,3.0,5.0,82,0.00,,,0.00,WeatherTracker,2013-07-02 00:15:00,
2013-07-01 19:20:00,80.1,73.7,29.85,SE,145,2.0,6.0,81,0.00,,,0.00,WeatherTracker,2013-07-02 00:20:00,
2013-07-01 19:30:00,79.4,73.4,29.85,ESE,118,2.0,6.0,82,0.00,,,0.00,WeatherTracker,2013-07-02 00:30:00,
2013-07-01 19:35:00,79.1,73.1,29.85,South,178,2.0,6.0,82,0.00,,,0.00,WeatherTracker,2013-07-02 00:35:00,
2013-07-01 19:45:00,78.6,73.0,29.85,SSW,206,0.0,4.0,83,0.00,,,0.00,WeatherTracker,2013-07-02 00:45:00,
2013-07-01 19:50:00,78.3,73.1,29.85,SSE,152,2.0,4.0,84,0.00,,,0.00,WeatherTracker,2013-07-02 00:50:00,
2013-07-01 19:55:00,77.9,72.7,29.85,South,169,1.0,5.0,84,0.00,,,0.00,WeatherTracker,2013-07-02 00:55:00,
2013-07-01 20:05:00,77.4,72.5,29.85,South,171,0.0,6.0,85,0.00,,,0.00,WeatherTracker,2013-07-02 01:05:00,
2013-07-01 20:10:00,77.2,72.3,29.85,SSE,152,2.0,6.0,85,0.00,,,0.00,WeatherTracker,2013-07-02 01:10:00,
2013-07-01 20:15:00,77.0,72.1,29.86,South,178,4.0,8.0,85,0.00,,,0.00,WeatherTracker,2013-07-02 01:15:00,
2013-07-01 20:25:00,76.5,71.6,29.85,SSE,150,4.0,9.0,85,0.00,,,0.00,WeatherTracker,2013-07-02 01:25:00,
2013-07-01 20:30:00,76.3,71.4,29.85,ESE,123,1.0,8.0,85,0.00,,,0.00,WeatherTracker,2013-07-02 01:30:00,
2013-07-01 20:35:00,76.2,71.3,29.85,SSE,156,1.0,8.0,85,0.00,,,0.00,WeatherTracker,2013-07-02 01:35:00,
2013-07-01 20:45:00,75.8,71.0,29.86,South,178,0.0,5.0,85,0.00,,,0.00,WeatherTracker,2013-07-02 01:45:00,
2013-07-01 20:55:00,75.6,71.1,29.86,South,170,1.0,5.0,86,0.00,,,0.00,WeatherTracker,2013-07-02 01:55:00,
2013-07-01 21:05:00,75.3,70.8,29.86,South,182,1.0,5.0,86,0.00,,,0.00,WeatherTracker,2013-07-02 02:05:00,
2013-07-01 21:10:00,75.2,71.1,29.86,South,182,0.0,4.0,87,0.00,,,0.00,WeatherTracker,2013-07-02 02:10:00,
2013-07-01 21:20:00,75.0,71.2,29.87,SSW,207,4.0,5.0,88,0.00,,,0.00,WeatherTracker,2013-07-02 02:20:00,
2013-07-01 21:25:00,74.9,71.1,29.87,East,84,0.0,5.0,88,0.00,,,0.00,WeatherTracker,2013-07-02 02:25:00,
2013-07-01 21:30:00,74.8,71.0,29.87,East,92,0.0,5.0,88,0.00,,,0.00,WeatherTracker,2013-07-02 02:30:00,
2013-07-01 21:35:00,74.8,71.0,29.87,East,92,0.0,4.0,88,0.00,,,0.00,WeatherTracker,2013-07-02 02:35:00,
2013-07-01 21:40:00,74.8,71.0,29.87,East,92,0.0,4.0,88,0.00,,,0.00,WeatherTracker,2013-07-02 02:40:00,
2013-07-01 21:50:00,74.7,70.6,29.88,East,92,0.0,0.0,87,0.00,,,0.00,WeatherTracker,2013-07-02 02:50:00,
2013-07-01 22:00:00,74.6,70.1,29.88,SE,129,0.0,5.0,86,0.00,,,0.00,WeatherTracker,2013-07-02 03:00:00,
2013-07-01 22:05:00,74.6,70.1,29.88,SE,130,0.0,5.0,86,0.00,,,0.00,WeatherTracker,2013-07-02 03:05:00,
2013-07-01 22:15:00,74.6,70.1,29.88,SE,130,0.0,4.0,86,0.00,,,0.00,WeatherTracker,2013-07-02 03:15:00,
2013-07-01 22:20:00,74.6,70.1,29.88,SE,132,0.0,4.0,86,0.00,,,0.00,WeatherTracker,2013-07-02 03:20:00,
2013-07-01 22:25:00,74.6,70.1,29.88,SE,132,0.0,4.0,86,0.00,,,0.00,WeatherTracker,2013-07-02 03:25:00,
2013-07-01 22:30:00,74.7,70.2,29.88,SE,132,0.0,2.0,86,0.00,,,0.00,WeatherTracker,2013-07-02 03:30:00,
2013-07-01 22:40:00,74.7,70.9,29.89,West,269,4.0,9.0,88,0.00,,,0.00,WeatherTracker,2013-07-02 03:40:00,
2013-07-01 22:45:00,74.7,70.9,29.89,SSW,194,4.0,9.0,88,0.00,,,0.00,WeatherTracker,2013-07-02 03:45:00,
2013-07-01 22:50:00,74.7,70.9,29.89,West,261,2.0,6.0,88,0.00,,,0.00,WeatherTracker,2013-07-02 03:50:00,
2013-07-01 22:55:00,74.8,71.0,29.89,WSW,250,2.0,6.0,88,0.00,,,0.00,WeatherTracker,2013-07-02 03:55:00,
2013-07-01 23:05:00,74.8,71.3,29.89,WSW,251,1.0,4.0,89,0.00,,,0.00,WeatherTracker,2013-07-02 04:05:00,
2013-07-01 23:10:00,74.8,71.3,29.89,WSW,251,0.0,4.0,89,0.00,,,0.00,WeatherTracker,2013-07-02 04:10:00,
2013-07-01 23:15:00,74.8,71.3,29.89,WSW,251,0.0,3.0,89,0.00,,,0.00,WeatherTracker,2013-07-02 04:15:00,
2013-07-01 23:20:00,74.7,71.2,29.89,WSW,251,0.0,0.0,89,0.00,,,0.00,WeatherTracker,2013-07-02 04:20:00,
2013-07-01 23:25:00,74.7,71.2,29.89,WSW,251,0.0,0.0,89,0.00,,,0.00,WeatherTracker,2013-07-02 04:25:00,
2013-07-01 23:30:00,74.7,71.2,29.89,WSW,251,0.0,0.0,89,0.00,,,0.00,WeatherTracker,2013-07-02 04:30:00,
2013-07-01 23:35:00,74.7,71.2,29.89,WSW,251,0.0,0.0,89,0.00,,,0.00,WeatherTracker,2013-07-02 04:35:00,
2013-07-01 23:45:00,74.6,71.5,29.89,WSW,251,0.0,0.0,90,0.00,,,0.00,WeatherTracker,2013-07-02 04:45:00,
2013-07-01 23:50:00,74.5,71.4,29.89,WSW,251,0.0,0.0,90,0.00,,,0.00,WeatherTracker,2013-07-02 04:50:00,
2013-07-01 23:55:00,74.4,71.3,29.89,WSW,251,0.0,0.0,90,0.00,,,0.00,WeatherTracker,2013-07-02 04:55:00,